Time;durP1;ratioP1;P1;durP2;ratioP2;P2;SDS_P1;SDS_P2;PMS_P1;PMS_P2;Temp;Humidity;BMP_temperature;BMP_pressure;BME280_temperature;BME280_humidity;BME280_pressure;Samples;Min_cycle;Max_cycle;Signal;HPM_P1;HPM_P2
2020/08/17 01:10:18;;;;;;;10.75;9.749999;;;;;;;17.69;90.14063;94621.8;;;;
2020/08/17 01:11:27;;;;;;;10.75;9.749999;;;;;;;17.69;90.14063;94621.8;;;;
2020/08/17 01:12:31;;;;;;;10.75;9.749999;;;;;;;17.69;90.14063;94621.8;;;;
2020/08/17 01:13:36;;;;;;;10.75;9.749999;;;;;;;17.69;90.14063;94621.8;;;;
2020/08/17 01:14:42;;;;;;;10.75;9.749999;;;;;;;17.69;90.14063;94621.8;;;;
2020/08/17 01:15:47;;;;;;;10.75;9.749999;;;;;;;17.69;90.14063;94621.8;;;;
2020/08/17 01:16:52;;;;;;;10.75;9.749999;;;;;;;17.69;90.14063;94621.8;;;;
2020/08/17 01:17:58;;;;;;;10.75;9.749999;;;;;;;17.69;90.14063;94621.8;;;;
2020/08/17 01:19:03;;;;;;;10.75;9.749999;;;;;;;17.69;90.14063;94621.8;;;;
2020/08/17 01:20:10;;;;;;;10.75;9.749999;;;;;;;17.69;90.14063;94621.8;;;;
2020/08/17 01:21:17;;;;;;;10.05;9.1;;;;;;;17.66;90.73047;94622.77;;;;
2020/08/17 01:22:23;;;;;;;10.05;9.1;;;;;;;17.66;90.73047;94622.77;;;;
2020/08/17 01:23:31;;;;;;;10.05;9.1;;;;;;;17.66;90.73047;94622.77;;;;
2020/08/17 01:24:37;;;;;;;10.05;9.1;;;;;;;17.66;90.73047;94622.77;;;;
2020/08/17 01:25:39;;;;;;;10.05;9.1;;;;;;;17.66;90.73047;94622.77;;;;
2020/08/17 01:26:47;;;;;;;10.05;9.1;;;;;;;17.66;90.73047;94622.77;;;;
2020/08/17 01:27:52;;;;;;;10.05;9.1;;;;;;;17.66;90.73047;94622.77;;;;
2020/08/17 01:28:53;;;;;;;10.05;9.1;;;;;;;17.66;90.73047;94622.77;;;;
2020/08/17 01:29:57;;;;;;;10.05;9.1;;;;;;;17.66;90.73047;94622.77;;;;
2020/08/17 01:31:02;;;;;;;10.05;9.1;;;;;;;17.66;90.73047;94622.77;;;;
2020/08/17 01:32:04;;;;;;;9.500001;8.65;;;;;;;17.59;91.2041;94622.34;;;;
2020/08/17 01:33:10;;;;;;;9.500001;8.65;;;;;;;17.59;91.2041;94622.34;;;;
2020/08/17 01:34:17;;;;;;;9.500001;8.65;;;;;;;17.59;91.2041;94622.34;;;;
2020/08/17 01:35:23;;;;;;;9.500001;8.65;;;;;;;17.59;91.2041;94622.34;;;;
2020/08/17 01:36:29;;;;;;;9.500001;8.65;;;;;;;17.59;91.2041;94622.34;;;;
2020/08/17 01:37:35;;;;;;;9.500001;8.65;;;;;;;17.59;91.2041;94622.34;;;;
2020/08/17 01:38:38;;;;;;;9.500001;8.65;;;;;;;17.59;91.2041;94622.34;;;;
2020/08/17 01:39:44;;;;;;;9.500001;8.65;;;;;;;17.59;91.2041;94622.34;;;;
2020/08/17 01:40:49;;;;;;;9.500001;8.65;;;;;;;17.59;91.2041;94622.34;;;;
2020/08/17 01:41:52;;;;;;;9.500001;8.65;;;;;;;17.59;91.2041;94622.34;;;;
2020/08/17 01:42:58;;;;;;;9.500001;8.65;;;;;;;17.59;91.2041;94622.34;;;;
2020/08/17 01:44:03;;;;;;;9.500001;8.65;;;;;;;17.59;91.2041;94622.34;;;;
2020/08/17 01:45:07;;;;;;;9.500001;8.65;;;;;;;17.59;91.2041;94622.34;;;;
2020/08/17 01:46:13;;;;;;;9.500001;8.65;;;;;;;17.59;91.2041;94622.34;;;;
2020/08/17 01:47:18;;;;;;;9.500001;8.65;;;;;;;17.59;91.2041;94622.34;;;;
2020/08/17 01:48:26;;;;;;;9.500001;8.65;;;;;;;17.59;91.2041;94622.34;;;;
2020/08/17 01:49:30;;;;;;;9.500001;8.65;;;;;;;17.59;91.2041;94622.34;;;;
2020/08/17 01:50:31;;;;;;;9.500001;8.65;;;;;;;17.59;91.2041;94622.34;;;;
2020/08/17 01:51:36;;;;;;;9.500001;8.65;;;;;;;17.59;91.2041;94622.34;;;;
2020/08/17 01:52:42;;;;;;;9.500001;8.65;;;;;;;17.59;91.2041;94622.34;;;;
2020/08/17 01:53:45;;;;;;;9.500001;8.65;;;;;;;17.59;91.2041;94622.34;;;;
2020/08/17 01:54:52;;;;;;;9.500001;8.65;;;;;;;17.59;91.2041;94622.34;;;;
2020/08/17 01:55:56;;;;;;;9.500001;8.65;;;;;;;17.59;91.2041;94622.34;;;;
2020/08/17 01:56:57;;;;;;;9.500001;8.65;;;;;;;17.59;91.2041;94622.34;;;;
2020/08/17 01:58:01;;;;;;;9.500001;8.65;;;;;;;17.59;91.2041;94622.34;;;;
2020/08/17 01:59:07;;;;;;;9.500001;8.65;;;;;;;17.59;91.2041;94622.34;;;;
2020/08/17 02:00:12;;;;;;;9.500001;8.65;;;;;;;17.59;91.2041;94622.34;;;;
2020/08/17 02:01:18;;;;;;;9.500001;8.65;;;;;;;17.59;91.2041;94622.34;;;;
2020/08/17 02:02:24;;;;;;;9.500001;8.65;;;;;;;17.59;91.2041;94622.34;;;;
2020/08/17 02:03:30;;;;;;;9.500001;8.65;;;;;;;17.59;91.2041;94622.34;;;;
2020/08/17 02:04:35;;;;;;;9.500001;8.65;;;;;;;17.59;91.2041;94622.34;;;;
2020/08/17 02:05:39;;;;;;;9.500001;8.65;;;;;;;17.59;91.2041;94622.34;;;;
2020/08/17 02:06:40;;;;;;;9.500001;8.65;;;;;;;17.59;91.2041;94622.34;;;;
2020/08/17 02:07:46;;;;;;;9.500001;8.65;;;;;;;17.59;91.2041;94622.34;;;;
2020/08/17 02:08:51;;;;;;;9.500001;8.65;;;;;;;17.59;91.2041;94622.34;;;;
2020/08/17 02:09:56;;;;;;;9.500001;8.65;;;;;;;17.59;91.2041;94622.34;;;;
2020/08/17 02:11:03;;;;;;;9.500001;8.65;;;;;;;17.59;91.2041;94622.34;;;;
2020/08/17 02:12:09;;;;;;;9.500001;8.65;;;;;;;17.59;91.2041;94622.34;;;;
2020/08/17 02:13:15;;;;;;;9.500001;8.65;;;;;;;17.59;91.2041;94622.34;;;;
2020/08/17 02:14:22;;;;;;;9.500001;8.65;;;;;;;17.59;91.2041;94622.34;;;;
2020/08/17 02:15:27;;;;;;;9.500001;8.65;;;;;;;17.59;91.2041;94622.34;;;;
2020/08/17 02:36:33;;;;;;;7.55;6.850001;;;;;;;18.47;92.69434;94750.41;;;;
2020/08/17 02:37:37;;;;;;;7.55;6.850001;;;;;;;18.47;92.69434;94750.41;;;;
2020/08/17 02:38:43;;;;;;;7.55;6.850001;;;;;;;18.47;92.69434;94750.41;;;;
2020/08/17 02:39:50;;;;;;;7.55;6.850001;;;;;;;18.47;92.69434;94750.41;;;;
2020/08/17 02:40:55;;;;;;;7.55;6.850001;;;;;;;18.47;92.69434;94750.41;;;;
2020/08/17 02:41:58;;;;;;;7.55;6.850001;;;;;;;18.47;92.69434;94750.41;;;;
2020/08/17 02:43:02;;;;;;;7.55;6.850001;;;;;;;18.47;92.69434;94750.41;;;;
2020/08/17 02:44:07;;;;;;;7.55;6.850001;;;;;;;18.47;92.69434;94750.41;;;;
2020/08/17 02:45:08;;;;;;;7.55;6.850001;;;;;;;18.47;92.69434;94750.41;;;;
2020/08/17 02:46:14;;;;;;;7.55;6.850001;;;;;;;18.47;92.69434;94750.41;;;;
2020/08/17 02:47:19;;;;;;;7.55;6.850001;;;;;;;18.47;92.69434;94750.41;;;;
2020/08/17 02:48:27;;;;;;;7.55;6.850001;;;;;;;18.47;92.69434;94750.41;;;;
2020/08/17 02:49:35;;;;;;;7.55;6.850001;;;;;;;18.47;92.69434;94750.41;;;;
2020/08/17 02:50:41;;;;;;;7.55;6.850001;;;;;;;18.47;92.69434;94750.41;;;;
2020/08/17 02:51:47;;;;;;;7.55;6.850001;;;;;;;18.47;92.69434;94750.41;;;;
2020/08/17 02:52:52;;;;;;;7.55;6.850001;;;;;;;18.47;92.69434;94750.41;;;;
2020/08/17 02:53:58;;;;;;;7.55;6.850001;;;;;;;18.47;92.69434;94750.41;;;;
2020/08/17 02:55:03;;;;;;;7.55;6.850001;;;;;;;18.47;92.69434;94750.41;;;;
2020/08/17 02:56:04;;;;;;;7.55;6.850001;;;;;;;18.47;92.69434;94750.41;;;;
2020/08/17 02:57:09;;;;;;;7.55;6.850001;;;;;;;18.47;92.69434;94750.41;;;;
2020/08/17 02:58:13;;;;;;;7.55;6.850001;;;;;;;18.47;92.69434;94750.41;;;;
2020/08/17 02:59:15;;;;;;;7.55;6.850001;;;;;;;18.47;92.69434;94750.41;;;;
2020/08/17 03:00:22;;;;;;;7.55;6.850001;;;;;;;18.47;92.69434;94750.41;;;;
2020/08/17 03:01:28;;;;;;;7.55;6.850001;;;;;;;18.47;92.69434;94750.41;;;;
2020/08/17 03:02:33;;;;;;;7.55;6.850001;;;;;;;18.47;92.69434;94750.41;;;;
2020/08/17 03:03:38;;;;;;;7.55;6.850001;;;;;;;18.47;92.69434;94750.41;;;;
2020/08/17 03:04:42;;;;;;;7.55;6.850001;;;;;;;18.47;92.69434;94750.41;;;;
2020/08/17 03:05:43;;;;;;;7.55;6.850001;;;;;;;18.47;92.69434;94750.41;;;;
2020/08/17 03:06:50;;;;;;;7.55;6.850001;;;;;;;18.47;92.69434;94750.41;;;;
2020/08/17 03:07:54;;;;;;;7.55;6.850001;;;;;;;18.47;92.69434;94750.41;;;;
2020/08/17 03:08:57;;;;;;;7.55;6.850001;;;;;;;18.47;92.69434;94750.41;;;;
2020/08/17 03:10:03;;;;;;;7.55;6.850001;;;;;;;18.47;92.69434;94750.41;;;;
2020/08/17 03:11:08;;;;;;;7.55;6.850001;;;;;;;18.47;92.69434;94750.41;;;;
2020/08/17 03:12:13;;;;;;;7.55;6.850001;;;;;;;18.47;92.69434;94750.41;;;;
2020/08/17 03:13:18;;;;;;;7.55;6.850001;;;;;;;18.47;92.69434;94750.41;;;;
2020/08/17 03:14:24;;;;;;;7.55;6.850001;;;;;;;18.47;92.69434;94750.41;;;;
2020/08/17 03:15:28;;;;;;;7.55;6.850001;;;;;;;18.47;92.69434;94750.41;;;;
2020/08/17 03:16:34;;;;;;;7.55;6.850001;;;;;;;18.47;92.69434;94750.41;;;;
2020/08/17 03:17:44;;;;;;;7.55;6.850001;;;;;;;18.47;92.69434;94750.41;;;;
2020/08/17 03:18:49;;;;;;;7.55;6.850001;;;;;;;18.47;92.69434;94750.41;;;;
2020/08/17 03:19:53;;;;;;;7.55;6.850001;;;;;;;18.47;92.69434;94750.41;;;;
2020/08/17 03:20:57;;;;;;;7.55;6.850001;;;;;;;18.47;92.69434;94750.41;;;;
2020/08/17 03:31:02;;;;;;;4.849999;2.7;;;;;;;18.63;90.07129;94794.17;;;;
2020/08/17 03:32:06;;;;;;;4.849999;2.7;;;;;;;18.63;90.07129;94794.17;;;;
2020/08/17 03:33:08;;;;;;;4.849999;2.7;;;;;;;18.63;90.07129;94794.17;;;;
2020/08/17 03:34:10;;;;;;;4.849999;2.7;;;;;;;18.63;90.07129;94794.17;;;;
2020/08/17 03:35:19;;;;;;;4.849999;2.7;;;;;;;18.63;90.07129;94794.17;;;;
2020/08/17 03:36:25;;;;;;;4.849999;2.7;;;;;;;18.63;90.07129;94794.17;;;;
2020/08/17 03:37:34;;;;;;;4.849999;2.7;;;;;;;18.63;90.07129;94794.17;;;;
2020/08/17 03:38:39;;;;;;;4.849999;2.7;;;;;;;18.63;90.07129;94794.17;;;;
2020/08/17 03:39:44;;;;;;;4.849999;2.7;;;;;;;18.63;90.07129;94794.17;;;;
2020/08/17 03:40:50;;;;;;;4.849999;2.7;;;;;;;18.63;90.07129;94794.17;;;;
2020/08/17 03:41:54;;;;;;;4.849999;2.7;;;;;;;18.63;90.07129;94794.17;;;;
2020/08/17 03:43:01;;;;;;;4.849999;2.7;;;;;;;18.63;90.07129;94794.17;;;;
2020/08/17 03:44:08;;;;;;;4.849999;2.7;;;;;;;18.63;90.07129;94794.17;;;;
2020/08/17 03:45:14;;;;;;;4.849999;2.7;;;;;;;18.63;90.07129;94794.17;;;;
2020/08/17 03:46:22;;;;;;;4.849999;2.7;;;;;;;18.63;90.07129;94794.17;;;;
2020/08/17 03:47:30;;;;;;;4.849999;2.7;;;;;;;18.63;90.07129;94794.17;;;;
2020/08/17 03:48:37;;;;;;;4.849999;2.7;;;;;;;18.63;90.07129;94794.17;;;;
2020/08/17 03:49:42;;;;;;;4.849999;2.7;;;;;;;18.63;90.07129;94794.17;;;;
2020/08/17 03:50:47;;;;;;;4.849999;2.7;;;;;;;18.63;90.07129;94794.17;;;;
2020/08/17 03:51:53;;;;;;;4.849999;2.7;;;;;;;18.63;90.07129;94794.17;;;;
2020/08/17 03:53:03;;;;;;;3;2.7;;;;;;;18.71;88.64258;94799.52;;;;
2020/08/17 03:54:15;;;;;;;3;2.7;;;;;;;18.71;88.64258;94799.52;;;;
2020/08/17 03:55:21;;;;;;;3;2.7;;;;;;;18.71;88.64258;94799.52;;;;
2020/08/17 03:56:31;;;;;;;3;2.7;;;;;;;18.71;88.64258;94799.52;;;;
2020/08/17 03:57:38;;;;;;;3;2.7;;;;;;;18.71;88.64258;94799.52;;;;
2020/08/17 03:58:45;;;;;;;3;2.7;;;;;;;18.71;88.64258;94799.52;;;;
2020/08/17 04:00:04;;;;;;;3;2.7;;;;;;;18.71;88.64258;94799.52;;;;
2020/08/17 04:01:10;;;;;;;3;2.7;;;;;;;18.71;88.64258;94799.52;;;;
2020/08/17 04:02:27;;;;;;;3;2.7;;;;;;;18.71;88.64258;94799.52;;;;
2020/08/17 04:03:43;;;;;;;3.05;2.4;;;;;;;18.58;88.76855;94796.17;;;;
2020/08/17 04:04:58;;;;;;;3.05;2.4;;;;;;;18.58;88.76855;94796.17;;;;
2020/08/17 04:06:09;;;;;;;3.05;2.4;;;;;;;18.58;88.76855;94796.17;;;;
2020/08/17 04:07:14;;;;;;;3.05;2.4;;;;;;;18.58;88.76855;94796.17;;;;
2020/08/17 04:08:21;;;;;;;3.05;2.4;;;;;;;18.58;88.76855;94796.17;;;;
2020/08/17 04:09:27;;;;;;;3.05;2.4;;;;;;;18.58;88.76855;94796.17;;;;
2020/08/17 04:10:43;;;;;;;3.05;2.4;;;;;;;18.58;88.76855;94796.17;;;;
2020/08/17 04:11:59;;;;;;;3.05;2.4;;;;;;;18.58;88.76855;94796.17;;;;
2020/08/17 04:13:07;;;;;;;3.05;2.4;;;;;;;18.58;88.76855;94796.17;;;;
2020/08/17 04:14:17;;;;;;;2.8;2.6;;;;;;;18.63;89.07324;94799.64;;;;
2020/08/17 04:15:26;;;;;;;2.8;2.6;;;;;;;18.63;89.07324;94799.64;;;;
2020/08/17 04:16:31;;;;;;;2.8;2.6;;;;;;;18.63;89.07324;94799.64;;;;
2020/08/17 04:17:37;;;;;;;2.8;2.6;;;;;;;18.63;89.07324;94799.64;;;;
2020/08/17 04:18:37;;;;;;;2.8;2.6;;;;;;;18.63;89.07324;94799.64;;;;
2020/08/17 04:19:48;;;;;;;2.8;2.6;;;;;;;18.63;89.07324;94799.64;;;;
2020/08/17 04:20:55;;;;;;;2.8;2.6;;;;;;;18.63;89.07324;94799.64;;;;
2020/08/17 04:22:11;;;;;;;2.8;2.6;;;;;;;18.63;89.07324;94799.64;;;;
2020/08/17 04:23:23;;;;;;;2.8;2.6;;;;;;;18.63;89.07324;94799.64;;;;
2020/08/17 04:24:33;;;;;;;3.400001;2.7;;;;;;;18.67;88.46387;94795.58;;;;
2020/08/17 04:25:38;;;;;;;3.400001;2.7;;;;;;;18.67;88.46387;94795.58;;;;
2020/08/17 04:26:43;;;;;;;3.400001;2.7;;;;;;;18.67;88.46387;94795.58;;;;
2020/08/17 04:27:48;;;;;;;3.400001;2.7;;;;;;;18.67;88.46387;94795.58;;;;
2020/08/17 04:29:04;;;;;;;3.400001;2.7;;;;;;;18.67;88.46387;94795.58;;;;
2020/08/17 04:30:20;;;;;;;3.400001;2.7;;;;;;;18.67;88.46387;94795.58;;;;
2020/08/17 04:31:32;;;;;;;3.400001;2.7;;;;;;;18.67;88.46387;94795.58;;;;
2020/08/17 04:32:36;;;;;;;3.400001;2.7;;;;;;;18.67;88.46387;94795.58;;;;
2020/08/17 04:33:41;;;;;;;3.400001;2.7;;;;;;;18.67;88.46387;94795.58;;;;
2020/08/17 04:34:51;;;;;;;3.400001;2.7;;;;;;;18.67;88.46387;94795.58;;;;
2020/08/17 04:36:10;;;;;;;3.6;3;;;;;;;18.7;88.23926;94814.29;;;;
2020/08/17 04:37:29;;;;;;;3.6;3;;;;;;;18.7;88.23926;94814.29;;;;
2020/08/17 04:38:53;;;;;;;3.6;3;;;;;;;18.7;88.23926;94814.29;;;;
2020/08/17 04:40:13;;;;;;;3.6;3;;;;;;;18.7;88.23926;94814.29;;;;
2020/08/17 04:41:18;;;;;;;3.6;3;;;;;;;18.7;88.23926;94814.29;;;;
2020/08/17 04:42:30;;;;;;;3.6;3;;;;;;;18.7;88.23926;94814.29;;;;
2020/08/17 04:43:35;;;;;;;3.6;3;;;;;;;18.7;88.23926;94814.29;;;;
2020/08/17 04:44:40;;;;;;;3.6;3;;;;;;;18.7;88.23926;94814.29;;;;
2020/08/17 04:45:45;;;;;;;3.2;2.9;;;;;;;18.74;88.11816;94827.47;;;;
2020/08/17 04:46:55;;;;;;;3.2;2.9;;;;;;;18.74;88.11816;94827.47;;;;
2020/08/17 04:48:13;;;;;;;3.2;2.9;;;;;;;18.74;88.11816;94827.47;;;;
2020/08/17 04:49:22;;;;;;;3.2;2.9;;;;;;;18.74;88.11816;94827.47;;;;
2020/08/17 04:50:29;;;;;;;3.2;2.9;;;;;;;18.74;88.11816;94827.47;;;;
2020/08/17 04:51:46;;;;;;;3.2;2.9;;;;;;;18.74;88.11816;94827.47;;;;
2020/08/17 04:52:59;;;;;;;3.2;2.9;;;;;;;18.74;88.11816;94827.47;;;;
2020/08/17 04:54:15;;;;;;;3.2;2.9;;;;;;;18.74;88.11816;94827.47;;;;
2020/08/17 04:55:20;;;;;;;3.2;2.9;;;;;;;18.74;88.11816;94827.47;;;;
2020/08/17 04:56:27;;;;;;;3.2;2.9;;;;;;;18.74;88.11816;94827.47;;;;
2020/08/17 04:57:34;;;;;;;3.2;2.9;;;;;;;18.74;88.11816;94827.47;;;;
2020/08/17 04:58:39;;;;;;;3.2;2.9;;;;;;;18.74;88.11816;94827.47;;;;
2020/08/17 04:59:45;;;;;;;3.2;2.9;;;;;;;18.74;88.11816;94827.47;;;;
2020/08/17 05:00:54;;;;;;;3.2;2.9;;;;;;;18.74;88.11816;94827.47;;;;
2020/08/17 05:01:59;;;;;;;3.2;2.9;;;;;;;18.74;88.11816;94827.47;;;;
2020/08/17 05:03:03;;;;;;;3.2;2.9;;;;;;;18.74;88.11816;94827.47;;;;
2020/08/17 05:04:15;;;;;;;3.2;2.9;;;;;;;18.74;88.11816;94827.47;;;;
2020/08/17 05:05:23;;;;;;;3.2;2.9;;;;;;;18.74;88.11816;94827.47;;;;
2020/08/17 05:06:34;;;;;;;3.2;2.9;;;;;;;18.74;88.11816;94827.47;;;;
2020/08/17 05:07:40;;;;;;;3.2;2.9;;;;;;;18.74;88.11816;94827.47;;;;
2020/08/17 05:08:41;;;;;;;3.2;2.9;;;;;;;18.74;88.11816;94827.47;;;;
2020/08/17 05:09:49;;;;;;;3.2;2.9;;;;;;;18.74;88.11816;94827.47;;;;
2020/08/17 05:11:10;;;;;;;3.2;2.9;;;;;;;18.74;88.11816;94827.47;;;;
2020/08/17 05:12:31;;;;;;;3.2;2.9;;;;;;;18.74;88.11816;94827.47;;;;
2020/08/17 05:13:36;;;;;;;3.2;2.9;;;;;;;18.74;88.11816;94827.47;;;;
2020/08/17 05:15:01;;;;;;;3.2;2.9;;;;;;;18.74;88.11816;94827.47;;;;
2020/08/17 05:16:18;;;;;;;3.2;2.9;;;;;;;18.74;88.11816;94827.47;;;;
2020/08/17 05:17:22;;;;;;;3.2;2.9;;;;;;;18.74;88.11816;94827.47;;;;
2020/08/17 05:18:32;;;;;;;3.2;2.9;;;;;;;18.74;88.11816;94827.47;;;;
2020/08/17 05:19:38;;;;;;;3.2;2.9;;;;;;;18.74;88.11816;94827.47;;;;
2020/08/17 05:20:47;;;;;;;3.2;2.9;;;;;;;18.74;88.11816;94827.47;;;;
2020/08/17 05:22:06;;;;;;;3.2;2.9;;;;;;;18.74;88.11816;94827.47;;;;
2020/08/17 05:23:30;;;;;;;3.2;2.9;;;;;;;18.74;88.11816;94827.47;;;;
2020/08/17 05:24:31;;;;;;;3.2;2.9;;;;;;;18.74;88.11816;94827.47;;;;
2020/08/17 05:25:39;;;;;;;3.2;2.9;;;;;;;18.74;88.11816;94827.47;;;;
2020/08/17 05:26:59;;;;;;;3.2;2.9;;;;;;;18.74;88.11816;94827.47;;;;
2020/08/17 05:28:15;;;;;;;3.2;2.9;;;;;;;18.74;88.11816;94827.47;;;;
2020/08/17 05:29:24;;;;;;;3.95;2.7;;;;;;;19.34;86.31152;94859.89;;;;
2020/08/17 05:30:31;;;;;;;3.95;2.7;;;;;;;19.34;86.31152;94859.89;;;;
2020/08/17 05:31:32;;;;;;;3.95;2.7;;;;;;;19.34;86.31152;94859.89;;;;
2020/08/17 05:32:42;;;;;;;3.95;2.7;;;;;;;19.34;86.31152;94859.89;;;;
2020/08/17 05:33:48;;;;;;;3.95;2.7;;;;;;;19.34;86.31152;94859.89;;;;
2020/08/17 05:34:59;;;;;;;3.95;2.7;;;;;;;19.34;86.31152;94859.89;;;;
2020/08/17 05:36:18;;;;;;;3.95;2.7;;;;;;;19.34;86.31152;94859.89;;;;
2020/08/17 05:37:25;;;;;;;3.95;2.7;;;;;;;19.34;86.31152;94859.89;;;;
2020/08/17 05:38:34;;;;;;;3.95;2.7;;;;;;;19.34;86.31152;94859.89;;;;
2020/08/17 05:39:40;;;;;;;2.6;2.4;;;;;;;19.47;86.3252;94860.07;;;;
2020/08/17 05:40:44;;;;;;;2.6;2.4;;;;;;;19.47;86.3252;94860.07;;;;
2020/08/17 05:41:54;;;;;;;2.6;2.4;;;;;;;19.47;86.3252;94860.07;;;;
2020/08/17 05:43:08;;;;;;;2.6;2.4;;;;;;;19.47;86.3252;94860.07;;;;
2020/08/17 05:44:16;;;;;;;2.6;2.4;;;;;;;19.47;86.3252;94860.07;;;;
2020/08/17 05:45:36;;;;;;;2.6;2.4;;;;;;;19.47;86.3252;94860.07;;;;
2020/08/17 05:46:44;;;;;;;2.6;2.4;;;;;;;19.47;86.3252;94860.07;;;;
2020/08/17 05:48:13;;;;;;;2.6;2.4;;;;;;;19.47;86.3252;94860.07;;;;
2020/08/17 05:49:22;;;;;;;2.6;2.4;;;;;;;19.47;86.3252;94860.07;;;;
2020/08/17 05:50:30;;;;;;;3.3;2.3;;;;;;;19.6;85.77441;94871.61;;;;
2020/08/17 05:51:37;;;;;;;3.3;2.3;;;;;;;19.6;85.77441;94871.61;;;;
2020/08/17 05:52:44;;;;;;;3.3;2.3;;;;;;;19.6;85.77441;94871.61;;;;
2020/08/17 05:53:48;;;;;;;3.3;2.3;;;;;;;19.6;85.77441;94871.61;;;;
2020/08/17 05:54:56;;;;;;;3.3;2.3;;;;;;;19.6;85.77441;94871.61;;;;
2020/08/17 05:56:09;;;;;;;3.3;2.3;;;;;;;19.6;85.77441;94871.61;;;;
2020/08/17 05:57:17;;;;;;;3.3;2.3;;;;;;;19.6;85.77441;94871.61;;;;
2020/08/17 05:58:29;;;;;;;3.3;2.3;;;;;;;19.6;85.77441;94871.61;;;;
2020/08/17 05:59:36;;;;;;;3.3;2.3;;;;;;;19.6;85.77441;94871.61;;;;
2020/08/17 06:00:42;;;;;;;3.3;2.3;;;;;;;19.6;85.77441;94871.61;;;;
2020/08/17 06:01:51;;;;;;;3.3;2.15;;;;;;;20;84.7168;94876.87;;;;
2020/08/17 06:02:59;;;;;;;3.3;2.15;;;;;;;20;84.7168;94876.87;;;;
2020/08/17 06:04:07;;;;;;;3.3;2.15;;;;;;;20;84.7168;94876.87;;;;
2020/08/17 06:05:14;;;;;;;3.3;2.15;;;;;;;20;84.7168;94876.87;;;;
2020/08/17 06:06:21;;;;;;;3.3;2.15;;;;;;;20;84.7168;94876.87;;;;
2020/08/17 06:07:31;;;;;;;3.3;2.15;;;;;;;20;84.7168;94876.87;;;;
2020/08/17 06:08:36;;;;;;;3.3;2.15;;;;;;;20;84.7168;94876.87;;;;
2020/08/17 06:09:48;;;;;;;3.3;2.15;;;;;;;20;84.7168;94876.87;;;;
2020/08/17 06:11:00;;;;;;;3.3;2.15;;;;;;;20;84.7168;94876.87;;;;
2020/08/17 06:12:06;;;;;;;2.75;2.15;;;;;;;20.5;83.34863;94884.08;;;;
2020/08/17 06:13:18;;;;;;;2.75;2.15;;;;;;;20.5;83.34863;94884.08;;;;
2020/08/17 06:14:26;;;;;;;2.75;2.15;;;;;;;20.5;83.34863;94884.08;;;;
2020/08/17 06:15:34;;;;;;;2.75;2.15;;;;;;;20.5;83.34863;94884.08;;;;
2020/08/17 06:16:41;;;;;;;2.75;2.15;;;;;;;20.5;83.34863;94884.08;;;;
2020/08/17 06:17:47;;;;;;;2.75;2.15;;;;;;;20.5;83.34863;94884.08;;;;
2020/08/17 06:18:52;;;;;;;2.75;2.15;;;;;;;20.5;83.34863;94884.08;;;;
2020/08/17 06:19:58;;;;;;;2.75;2.15;;;;;;;20.5;83.34863;94884.08;;;;
2020/08/17 06:21:04;;;;;;;2.75;2.15;;;;;;;20.5;83.34863;94884.08;;;;
2020/08/17 06:22:13;;;;;;;2.75;2.15;;;;;;;20.5;83.34863;94884.08;;;;
2020/08/17 06:23:20;;;;;;;2.75;2.15;;;;;;;20.5;83.34863;94884.08;;;;
2020/08/17 06:24:26;;;;;;;2.75;2.15;;;;;;;20.5;83.34863;94884.08;;;;
2020/08/17 06:25:32;;;;;;;2.75;2.15;;;;;;;20.5;83.34863;94884.08;;;;
2020/08/17 06:26:37;;;;;;;2.75;2.15;;;;;;;20.5;83.34863;94884.08;;;;
2020/08/17 06:27:41;;;;;;;2.75;2.15;;;;;;;20.5;83.34863;94884.08;;;;
2020/08/17 06:28:47;;;;;;;2.75;2.15;;;;;;;20.5;83.34863;94884.08;;;;
2020/08/17 06:29:55;;;;;;;2.75;2.15;;;;;;;20.5;83.34863;94884.08;;;;
2020/08/17 06:31:00;;;;;;;2.75;2.15;;;;;;;20.5;83.34863;94884.08;;;;
2020/08/17 06:32:08;;;;;;;2.75;2.15;;;;;;;20.5;83.34863;94884.08;;;;
2020/08/17 06:33:21;;;;;;;2.75;2.15;;;;;;;20.5;83.34863;94884.08;;;;
2020/08/17 06:34:28;;;;;;;2.75;2.15;;;;;;;20.5;83.34863;94884.08;;;;
2020/08/17 06:35:32;;;;;;;2.75;2.15;;;;;;;20.5;83.34863;94884.08;;;;
2020/08/17 06:36:39;;;;;;;2.75;2.15;;;;;;;20.5;83.34863;94884.08;;;;
2020/08/17 06:37:47;;;;;;;2.75;2.15;;;;;;;20.5;83.34863;94884.08;;;;
2020/08/17 06:38:52;;;;;;;2.75;2.15;;;;;;;20.5;83.34863;94884.08;;;;
2020/08/17 06:39:56;;;;;;;2.75;2.15;;;;;;;20.5;83.34863;94884.08;;;;
2020/08/17 06:41:01;;;;;;;2.75;2.15;;;;;;;20.5;83.34863;94884.08;;;;
2020/08/17 06:42:07;;;;;;;2.75;2.15;;;;;;;20.5;83.34863;94884.08;;;;
2020/08/17 06:43:12;;;;;;;2.75;2.15;;;;;;;20.5;83.34863;94884.08;;;;
2020/08/17 06:44:19;;;;;;;2.75;2.15;;;;;;;20.5;83.34863;94884.08;;;;
2020/08/17 06:45:26;;;;;;;2.75;2.15;;;;;;;20.5;83.34863;94884.08;;;;
2020/08/17 06:46:32;;;;;;;2.75;2.15;;;;;;;20.5;83.34863;94884.08;;;;
2020/08/17 06:47:39;;;;;;;2.75;2.15;;;;;;;20.5;83.34863;94884.08;;;;
2020/08/17 06:48:44;;;;;;;2.75;2.15;;;;;;;20.5;83.34863;94884.08;;;;
2020/08/17 06:49:52;;;;;;;2.75;2.15;;;;;;;20.5;83.34863;94884.08;;;;
2020/08/17 06:50:56;;;;;;;2.75;2.15;;;;;;;20.5;83.34863;94884.08;;;;
2020/08/17 06:52:03;;;;;;;2.75;2.15;;;;;;;20.5;83.34863;94884.08;;;;
2020/08/17 06:53:11;;;;;;;2.75;2.15;;;;;;;20.5;83.34863;94884.08;;;;
2020/08/17 06:54:21;;;;;;;2.75;2.15;;;;;;;20.5;83.34863;94884.08;;;;
2020/08/17 06:55:30;;;;;;;2.75;2.15;;;;;;;20.5;83.34863;94884.08;;;;
2020/08/17 08:00:39;;;;;;;10.35;4.45;;;;;;;23.26;73.3457;94943.3;;;;
2020/08/17 08:01:44;;;;;;;10.35;4.45;;;;;;;23.26;73.3457;94943.3;;;;
2020/08/17 08:02:49;;;;;;;10.35;4.45;;;;;;;23.26;73.3457;94943.3;;;;
2020/08/17 08:03:53;;;;;;;10.35;4.45;;;;;;;23.26;73.3457;94943.3;;;;
2020/08/17 08:04:54;;;;;;;10.35;4.45;;;;;;;23.26;73.3457;94943.3;;;;
2020/08/17 08:05:58;;;;;;;10.35;4.45;;;;;;;23.26;73.3457;94943.3;;;;
2020/08/17 08:07:05;;;;;;;10.35;4.45;;;;;;;23.26;73.3457;94943.3;;;;
2020/08/17 08:08:10;;;;;;;10.35;4.45;;;;;;;23.26;73.3457;94943.3;;;;
2020/08/17 08:09:18;;;;;;;10.35;4.45;;;;;;;23.26;73.3457;94943.3;;;;
2020/08/17 08:10:24;;;;;;;10.35;4.45;;;;;;;23.26;73.3457;94943.3;;;;
2020/08/17 08:11:32;;;;;;;3.35;1.8;;;;;;;23.89;71.2627;94942.07;;;;
2020/08/17 08:12:37;;;;;;;3.35;1.8;;;;;;;23.89;71.2627;94942.07;;;;
2020/08/17 08:13:41;;;;;;;3.35;1.8;;;;;;;23.89;71.2627;94942.07;;;;
2020/08/17 08:14:42;;;;;;;3.35;1.8;;;;;;;23.89;71.2627;94942.07;;;;
2020/08/17 08:15:48;;;;;;;3.35;1.8;;;;;;;23.89;71.2627;94942.07;;;;
2020/08/17 08:16:53;;;;;;;3.35;1.8;;;;;;;23.89;71.2627;94942.07;;;;
2020/08/17 08:17:58;;;;;;;3.35;1.8;;;;;;;23.89;71.2627;94942.07;;;;
2020/08/17 08:19:03;;;;;;;3.35;1.8;;;;;;;23.89;71.2627;94942.07;;;;
2020/08/17 08:20:07;;;;;;;3.35;1.8;;;;;;;23.89;71.2627;94942.07;;;;
2020/08/17 08:21:13;;;;;;;3.35;1.8;;;;;;;23.89;71.2627;94942.07;;;;
2020/08/17 08:22:20;;;;;;;4.249999;2;;;;;;;24.78;68.43945;94934.25;;;;
2020/08/17 08:23:25;;;;;;;4.249999;2;;;;;;;24.78;68.43945;94934.25;;;;
2020/08/17 08:24:31;;;;;;;4.249999;2;;;;;;;24.78;68.43945;94934.25;;;;
2020/08/17 08:25:39;;;;;;;4.249999;2;;;;;;;24.78;68.43945;94934.25;;;;
2020/08/17 08:26:44;;;;;;;4.249999;2;;;;;;;24.78;68.43945;94934.25;;;;
2020/08/17 08:27:50;;;;;;;4.249999;2;;;;;;;24.78;68.43945;94934.25;;;;
2020/08/17 08:28:56;;;;;;;4.249999;2;;;;;;;24.78;68.43945;94934.25;;;;
2020/08/17 08:29:59;;;;;;;4.249999;2;;;;;;;24.78;68.43945;94934.25;;;;
2020/08/17 08:31:02;;;;;;;4.249999;2;;;;;;;24.78;68.43945;94934.25;;;;
2020/08/17 08:32:07;;;;;;;5.749999;2.2;;;;;;;26.25;64.88379;94939.09;;;;
2020/08/17 08:33:13;;;;;;;5.749999;2.2;;;;;;;26.25;64.88379;94939.09;;;;
2020/08/17 08:34:17;;;;;;;5.749999;2.2;;;;;;;26.25;64.88379;94939.09;;;;
2020/08/17 08:35:26;;;;;;;5.749999;2.2;;;;;;;26.25;64.88379;94939.09;;;;
2020/08/17 08:36:31;;;;;;;5.749999;2.2;;;;;;;26.25;64.88379;94939.09;;;;
2020/08/17 08:37:36;;;;;;;5.749999;2.2;;;;;;;26.25;64.88379;94939.09;;;;
2020/08/17 08:38:40;;;;;;;5.749999;2.2;;;;;;;26.25;64.88379;94939.09;;;;
2020/08/17 08:39:45;;;;;;;5.749999;2.2;;;;;;;26.25;64.88379;94939.09;;;;
2020/08/17 08:40:52;;;;;;;5.749999;2.2;;;;;;;26.25;64.88379;94939.09;;;;
2020/08/17 08:41:58;;;;;;;5.749999;2.2;;;;;;;26.25;64.88379;94939.09;;;;
2020/08/17 08:43:04;;;;;;;4.35;2.1;;;;;;;29.35;57.62891;94942.53;;;;
2020/08/17 08:44:10;;;;;;;4.35;2.1;;;;;;;29.35;57.62891;94942.53;;;;
2020/08/17 08:45:16;;;;;;;4.35;2.1;;;;;;;29.35;57.62891;94942.53;;;;
2020/08/17 08:46:23;;;;;;;4.35;2.1;;;;;;;29.35;57.62891;94942.53;;;;
2020/08/17 08:47:30;;;;;;;4.35;2.1;;;;;;;29.35;57.62891;94942.53;;;;
2020/08/17 08:48:36;;;;;;;4.35;2.1;;;;;;;29.35;57.62891;94942.53;;;;
2020/08/17 08:49:40;;;;;;;4.35;2.1;;;;;;;29.35;57.62891;94942.53;;;;
2020/08/17 08:50:47;;;;;;;4.35;2.1;;;;;;;29.35;57.62891;94942.53;;;;
2020/08/17 08:51:52;;;;;;;4.35;2.1;;;;;;;29.35;57.62891;94942.53;;;;
2020/08/17 08:52:57;;;;;;;4.35;2.1;;;;;;;29.35;57.62891;94942.53;;;;
2020/08/17 08:53:58;;;;;;;2.8;1.9;;;;;;;28.89;57.21191;94953.13;;;;
2020/08/17 08:55:03;;;;;;;2.8;1.9;;;;;;;28.89;57.21191;94953.13;;;;
2020/08/17 08:56:08;;;;;;;2.8;1.9;;;;;;;28.89;57.21191;94953.13;;;;
2020/08/17 08:57:15;;;;;;;2.8;1.9;;;;;;;28.89;57.21191;94953.13;;;;
2020/08/17 08:58:21;;;;;;;2.8;1.9;;;;;;;28.89;57.21191;94953.13;;;;
2020/08/17 08:59:27;;;;;;;2.8;1.9;;;;;;;28.89;57.21191;94953.13;;;;
2020/08/17 09:00:31;;;;;;;2.8;1.9;;;;;;;28.89;57.21191;94953.13;;;;